Time;durP1;ratioP1;P1;durP2;ratioP2;P2;SDS_P1;SDS_P2;PMS_P1;PMS_P2;Temp;Humidity;BMP_temperature;BMP_pressure;BME280_temperature;BME280_humidity;BME280_pressure;Samples;Min_cycle;Max_cycle;Signal;HPM_P1;HPM_P2
2023/06/02 00:00:20;;;;;;;5.72;5.00;;;;;;;20.10;50.60;95380.31;4991906;28;20204;-88
2023/06/02 00:02:51;;;;;;;5.80;5.15;;;;;;;20.11;50.33;95387.91;4990862;28;20598;-88
2023/06/02 00:05:26;;;;;;;4.80;4.30;;;;;;;20.13;50.83;95385.06;4987291;28;20715;-89
2023/06/02 00:07:55;;;;;;;5.28;4.78;;;;;;;20.09;50.65;95386.56;4991198;28;20223;-89
2023/06/02 00:10:30;;;;;;;7.15;4.88;;;;;;;20.10;50.60;95382.94;4990821;28;20207;-89
2023/06/02 00:13:01;;;;;;;7.05;4.80;;;;;;;20.02;51.20;95387.53;4990147;28;20342;-89
2023/06/02 00:15:29;;;;;;;5.45;4.95;;;;;;;19.98;50.99;95380.44;4990813;28;20273;-89
2023/06/02 00:17:55;;;;;;;5.00;4.40;;;;;;;19.96;51.23;95379.88;4991213;28;20211;-89
2023/06/02 00:20:26;;;;;;;8.68;4.82;;;;;;;19.98;51.28;95385.66;4991317;28;20204;-89
2023/06/02 00:22:52;;;;;;;5.28;4.55;;;;;;;19.98;51.59;95380.44;4990671;28;20203;-88
2023/06/02 00:25:23;;;;;;;6.05;5.45;;;;;;;19.91;51.64;95382.41;4990774;28;20227;-89
2023/06/02 00:27:54;;;;;;;5.40;4.90;;;;;;;19.79;52.89;95382.50;4990531;28;20211;-89
2023/06/02 00:30:22;;;;;;;6.70;5.28;;;;;;;19.61;52.66;95380.94;4991270;28;20215;-88
2023/06/02 00:32:49;;;;;;;5.32;4.45;;;;;;;19.53;53.18;95377.91;4990640;28;20204;-88
2023/06/02 00:35:15;;;;;;;5.43;4.93;;;;;;;19.50;52.71;95381.00;4989872;28;20231;-89
2023/06/02 00:37:44;;;;;;;5.15;4.65;;;;;;;19.45;53.46;95383.47;4990691;28;20206;-88
2023/06/02 00:40:14;;;;;;;5.38;4.63;;;;;;;19.41;52.99;95391.03;4990736;28;20235;-88
2023/06/02 00:42:40;;;;;;;5.40;4.90;;;;;;;19.40;53.47;95384.22;4989271;28;20207;-88
2023/06/02 00:45:10;;;;;;;5.30;4.80;;;;;;;19.39;53.31;95382.63;4971127;28;20231;-89
2023/06/02 00:47:36;;;;;;;5.30;4.88;;;;;;;19.42;52.98;95383.97;4970597;28;20221;-89
2023/06/02 00:50:03;;;;;;;6.47;5.03;;;;;;;19.45;53.17;95373.03;4975302;28;20199;-89
2023/06/02 00:52:35;;;;;;;6.03;5.10;;;;;;;19.49;52.70;95379.38;4990143;28;20283;-88
2023/06/02 00:55:02;;;;;;;5.70;4.93;;;;;;;19.42;53.33;95379.53;4989800;28;20199;-89
2023/06/02 00:57:33;;;;;;;5.50;5.00;;;;;;;19.40;53.78;95384.22;4990148;28;20230;-88
2023/06/02 01:00:04;;;;;;;5.75;4.93;;;;;;;19.40;53.08;95379.00;4990794;28;20208;-88
2023/06/02 01:02:42;;;;;;;5.30;4.80;;;;;;;19.39;53.63;95387.84;4990373;28;20211;-89
2023/06/02 01:05:12;;;;;;;6.10;5.13;;;;;;;19.28;53.81;95371.22;4990616;28;20227;-88
2023/06/02 01:07:44;;;;;;;5.88;4.88;;;;;;;19.22;54.40;95373.97;4990034;28;20227;-89
2023/06/02 01:10:18;;;;;;;5.78;4.82;;;;;;;19.24;54.25;95372.69;4990568;28;20210;-89
2023/06/02 01:12:44;;;;;;;5.85;5.35;;;;;;;19.23;54.27;95378.97;4989939;28;20629;-89
2023/06/02 01:15:12;;;;;;;7.00;5.53;;;;;;;19.21;54.17;95372.41;4990101;28;20227;-88
2023/06/02 01:17:45;;;;;;;5.32;4.82;;;;;;;19.16;54.26;95375.72;4989836;28;20227;-88
2023/06/02 01:20:21;;;;;;;6.07;5.07;;;;;;;19.15;54.53;95366.28;4990982;28;20913;-89
2023/06/02 01:32:56;;;;;;;5.85;5.20;;;;;;;19.10;55.02;95371.41;4990555;28;20226;-88
2023/06/02 01:35:27;;;;;;;5.43;4.93;;;;;;;19.11;54.86;95374.81;4990010;28;20207;-88
2023/06/02 01:38:07;;;;;;;6.32;5.38;;;;;;;19.12;54.62;95371.97;4989670;28;20222;-88
2023/06/02 01:40:34;;;;;;;5.60;5.10;;;;;;;19.11;54.86;95373.00;4990604;28;20231;-89
2023/06/02 01:43:01;;;;;;;7.30;5.70;;;;;;;19.09;55.28;95372.44;4989663;28;20206;-88
2023/06/02 01:45:29;;;;;;;6.18;5.43;;;;;;;19.08;55.16;95365.63;4989712;28;20215;-89
2023/06/02 01:48:10;;;;;;;5.68;5.18;;;;;;;19.06;55.07;95364.28;4989331;28;20230;-88
2023/06/02 01:50:38;;;;;;;5.55;5.05;;;;;;;19.00;55.40;95363.41;4989730;28;20235;-88
2023/06/02 01:53:05;;;;;;;6.00;5.50;;;;;;;19.03;54.95;95364.78;4988838;28;20199;-88
2023/06/02 01:55:31;;;;;;;6.18;5.47;;;;;;;19.02;55.16;95360.59;4989475;28;20773;-88
2023/06/02 01:57:58;;;;;;;5.53;4.93;;;;;;;19.01;55.10;95366.81;4994804;28;20237;-88
2023/06/02 02:00:25;;;;;;;5.82;5.13;;;;;;;18.97;55.86;95361.28;4989230;28;20218;-88
2023/06/02 02:02:52;;;;;;;5.57;5.07;;;;;;;18.97;54.74;95363.88;4988690;28;20696;-88
2023/06/02 02:05:20;;;;;;;5.95;5.38;;;;;;;18.92;55.20;95364.56;4989198;28;20727;-89
2023/06/02 02:07:47;;;;;;;5.97;5.47;;;;;;;18.81;55.60;95364.63;4989355;28;20203;-89
2023/06/02 02:10:17;;;;;;;6.05;5.38;;;;;;;18.70;56.01;95361.03;4989926;28;20211;-89
2023/06/02 02:12:44;;;;;;;6.93;5.40;;;;;;;18.63;56.28;95353.38;4989089;28;20257;-88
2023/06/02 02:15:21;;;;;;;5.88;5.30;;;;;;;18.60;56.06;95353.03;4989189;28;20200;-88
2023/06/02 02:17:49;;;;;;;5.97;5.45;;;;;;;18.57;56.40;95362.06;4970986;28;20204;-89
2023/06/02 02:20:17;;;;;;;7.30;5.60;;;;;;;18.54;56.70;95359.13;4983949;28;20290;-88
2023/06/02 02:22:46;;;;;;;6.07;5.40;;;;;;;18.53;56.50;95360.94;4993327;28;20203;-89
2023/06/02 02:25:13;;;;;;;6.35;5.30;;;;;;;18.59;56.55;95370.50;4993373;28;20223;-89
2023/06/02 02:27:40;;;;;;;7.45;5.40;;;;;;;18.57;56.31;95364.69;4993050;28;20219;-88
2023/06/02 02:30:08;;;;;;;5.88;5.30;;;;;;;18.50;57.12;95366.63;4993644;28;20234;-88
2023/06/02 02:32:36;;;;;;;6.18;5.00;;;;;;;18.53;56.80;95366.16;4993675;28;20207;-88
2023/06/02 02:35:04;;;;;;;5.65;5.15;;;;;;;18.51;56.95;95364.81;4973991;28;20231;-89
2023/06/02 02:37:30;;;;;;;6.93;5.70;;;;;;;18.46;57.07;95368.13;4973919;28;20758;-89
2023/06/02 02:39:58;;;;;;;7.97;5.25;;;;;;;18.48;57.04;95365.25;4987370;28;20199;-89
2023/06/02 02:42:25;;;;;;;7.63;5.43;;;;;;;18.45;57.37;95363.13;4992119;28;20203;-88
2023/06/02 02:44:51;;;;;;;5.93;5.32;;;;;;;18.46;57.40;95360.31;4993569;28;20219;-89
2023/06/02 02:47:20;;;;;;;6.07;5.30;;;;;;;18.50;57.17;95364.00;4994051;28;20222;-88
2023/06/02 02:49:47;;;;;;;6.28;5.65;;;;;;;18.49;57.71;95356.41;4992350;28;20278;-88
2023/06/02 02:52:13;;;;;;;5.97;5.43;;;;;;;18.46;57.34;95355.09;4994000;28;20226;-89
2023/06/02 02:54:40;;;;;;;6.25;5.45;;;;;;;18.40;58.08;95352.59;4993358;28;20229;-89
2023/06/02 02:57:11;;;;;;;5.78;5.18;;;;;;;18.38;57.84;95357.25;4993331;28;20223;-88
2023/06/02 02:59:37;;;;;;;6.30;5.38;;;;;;;18.34;58.25;95356.91;4994074;28;20310;-89
2023/06/02 03:02:05;;;;;;;5.72;5.22;;;;;;;18.28;58.01;95356.00;4994383;28;20205;-89
2023/06/02 03:04:32;;;;;;;6.22;5.60;;;;;;;18.25;58.18;95356.50;4993155;28;20394;-89
2023/06/02 03:07:01;;;;;;;7.43;6.43;;;;;;;18.23;58.25;95361.16;4993759;28;20729;-88
2023/06/02 03:09:29;;;;;;;6.40;5.80;;;;;;;18.19;58.48;95359.22;4993369;28;20222;-88
2023/06/02 03:11:57;;;;;;;6.07;5.55;;;;;;;18.09;59.13;95357.16;4992926;28;20270;-89
2023/06/02 03:14:28;;;;;;;7.63;5.18;;;;;;;18.06;59.23;95354.25;4993026;28;20204;-88
2023/06/02 03:16:56;;;;;;;7.95;5.38;;;;;;;18.03;59.07;95363.31;4992996;28;20230;-89
2023/06/02 03:19:24;;;;;;;7.88;5.50;;;;;;;17.94;59.83;95367.28;4993800;28;20194;-88
2023/06/02 03:21:51;;;;;;;5.93;5.30;;;;;;;17.89;59.81;95361.97;4993198;28;20203;-89
2023/06/02 03:24:22;;;;;;;6.53;5.35;;;;;;;17.88;59.90;95358.56;4992587;28;20199;-88
2023/06/02 03:26:51;;;;;;;5.82;5.32;;;;;;;17.91;59.58;95365.91;4992943;28;20239;-89
2023/06/02 03:29:21;;;;;;;9.23;5.68;;;;;;;17.96;59.76;95367.84;4993165;28;20210;-88
2023/06/02 03:31:51;;;;;;;6.28;5.78;;;;;;;17.98;59.95;95367.63;4991491;28;20218;-88
2023/06/02 03:34:20;;;;;;;7.82;5.70;;;;;;;17.97;59.61;95373.84;4992056;28;20210;-88
2023/06/02 03:36:52;;;;;;;5.85;5.18;;;;;;;17.91;60.35;95372.94;4992391;28;20230;-88
2023/06/02 03:39:19;;;;;;;7.60;5.43;;;;;;;17.99;60.07;95371.81;4991950;28;20204;-88
2023/06/02 03:41:46;;;;;;;5.65;5.15;;;;;;;17.97;60.01;95372.03;4992180;28;20271;-89
2023/06/02 03:44:14;;;;;;;5.95;5.45;;;;;;;17.83;60.70;95371.47;4991785;28;20223;-88
2023/06/02 03:46:43;;;;;;;6.35;5.75;;;;;;;17.77;60.96;95382.78;4993260;28;20250;-89
2023/06/02 03:49:11;;;;;;;6.20;5.60;;;;;;;17.82;60.96;95371.72;4993253;28;20230;-89
2023/06/02 03:51:38;;;;;;;9.88;6.28;;;;;;;17.86;60.99;95383.25;4992530;28;20537;-88
2023/06/02 03:54:06;;;;;;;6.38;5.70;;;;;;;17.85;61.13;95382.47;4992662;28;20218;-87
2023/06/02 03:56:32;;;;;;;6.28;5.68;;;;;;;17.86;61.32;95393.69;4993911;28;20219;-89
2023/06/02 04:01:45;;;;;;;7.72;5.97;;;;;;;17.91;60.83;95384.16;4991865;28;20203;-89
2023/06/02 04:04:22;;;;;;;6.40;5.80;;;;;;;17.94;61.10;95385.50;4991428;28;20203;-88
2023/06/02 04:06:50;;;;;;;6.38;5.78;;;;;;;17.98;61.11;95383.25;4990958;28;20685;-89
2023/06/02 04:09:16;;;;;;;6.30;5.70;;;;;;;18.03;60.97;95380.75;4991154;28;20199;-88
2023/06/02 04:11:43;;;;;;;6.03;5.53;;;;;;;18.07;60.69;95387.91;4993173;28;20284;-89
2023/06/02 04:14:10;;;;;;;6.30;5.70;;;;;;;18.13;60.75;95392.19;4991410;28;20203;-88
2023/06/02 04:16:36;;;;;;;7.43;5.78;;;;;;;18.18;60.87;95400.13;4990445;28;20230;-88
2023/06/02 04:19:05;;;;;;;6.43;5.82;;;;;;;18.19;60.43;95406.91;4991333;28;20211;-88
2023/06/02 04:21:33;;;;;;;7.65;5.60;;;;;;;18.14;61.52;95400.78;4974391;28;20683;-88
2023/06/02 04:23:59;;;;;;;7.38;6.00;;;;;;;18.13;61.20;95397.41;4990260;28;20230;-88
2023/06/02 04:26:26;;;;;;;6.80;5.88;;;;;;;18.15;61.23;95403.19;4989664;28;20247;-89
2023/06/02 04:28:57;;;;;;;6.53;5.53;;;;;;;18.19;61.24;95403.53;4991261;28;20200;-88
2023/06/02 04:31:39;;;;;;;6.72;6.05;;;;;;;18.17;61.36;95408.16;4990580;28;20231;-88
2023/06/02 04:34:06;;;;;;;6.18;5.53;;;;;;;18.22;61.21;95408.28;4974880;28;20200;-90
2023/06/02 04:36:36;;;;;;;7.20;5.97;;;;;;;18.24;61.23;95409.63;4990893;28;20266;-89
2023/06/02 04:39:04;;;;;;;6.63;6.05;;;;;;;18.36;60.79;95416.66;4991135;28;20314;-88
2023/06/02 04:41:42;;;;;;;6.75;6.22;;;;;;;18.42;60.86;95408.72;4991818;28;20207;-89
2023/06/02 04:44:09;;;;;;;6.82;6.00;;;;;;;18.52;60.49;95410.72;4985821;28;20670;-89
2023/06/02 04:46:36;;;;;;;8.55;5.43;;;;;;;18.55;60.79;95410.25;5000116;28;20248;-89
2023/06/02 04:49:08;;;;;;;7.70;5.70;;;;;;;18.62;60.19;95403.16;5001117;28;20199;-90
2023/06/02 04:51:37;;;;;;;6.90;5.45;;;;;;;18.66;59.82;95406.09;4998347;28;20716;-87
2023/06/02 04:54:03;;;;;;;7.88;5.15;;;;;;;18.72;59.97;95405.16;4996823;28;20226;-88
2023/06/02 04:56:31;;;;;;;6.75;6.15;;;;;;;18.80;59.80;95402.19;4998839;28;20211;-89
2023/06/02 04:58:58;;;;;;;6.05;5.43;;;;;;;18.87;59.73;95400.22;4991174;28;20708;-89
2023/06/02 05:01:24;;;;;;;6.50;5.90;;;;;;;18.88;59.59;95397.38;4990856;28;20203;-88
2023/06/02 05:03:51;;;;;;;6.45;5.85;;;;;;;18.96;59.53;95404.03;4977938;28;20215;-87
2023/06/02 05:06:30;;;;;;;6.43;5.50;;;;;;;19.01;59.29;95401.53;4988184;28;20242;-89
2023/06/02 05:08:58;;;;;;;6.18;5.57;;;;;;;19.05;59.32;95404.47;4990108;28;20890;-88
2023/06/02 05:11:24;;;;;;;6.15;5.65;;;;;;;19.12;59.18;95403.28;4991456;28;20206;-88
2023/06/02 05:13:51;;;;;;;7.88;6.45;;;;;;;19.19;58.96;95403.16;4990396;28;20572;-87
2023/06/02 05:16:19;;;;;;;6.32;5.72;;;;;;;19.25;58.50;95397.78;4989631;28;20223;-88
2023/06/02 05:18:58;;;;;;;6.80;6.05;;;;;;;19.29;58.76;95409.34;4989985;28;20262;-88
2023/06/02 05:21:28;;;;;;;6.72;5.97;;;;;;;19.43;58.15;95406.44;4990461;28;20199;-87
2023/06/02 05:23:59;;;;;;;6.13;5.50;;;;;;;19.48;56.72;95406.50;4989858;28;20234;-88
2023/06/02 05:26:30;;;;;;;6.60;5.30;;;;;;;19.55;55.61;95402.75;4988988;28;20719;-87
2023/06/02 05:28:57;;;;;;;9.65;5.82;;;;;;;19.59;55.90;95403.09;4989048;28;20839;-86
2023/06/02 05:31:24;;;;;;;6.75;6.05;;;;;;;19.65;55.47;95405.53;4989793;28;20266;-88
2023/06/02 05:33:50;;;;;;;8.43;5.90;;;;;;;19.73;54.87;95414.00;4971494;28;20208;-88
2023/06/02 05:36:17;;;;;;;6.47;5.78;;;;;;;19.73;54.59;95408.78;4989095;28;20242;-88
2023/06/02 05:38:44;;;;;;;8.63;5.10;;;;;;;19.75;53.92;95404.13;4990252;28;20206;-88
2023/06/02 05:41:17;;;;;;;7.55;5.38;;;;;;;19.85;54.33;95402.44;4977279;28;20231;-87
2023/06/02 05:43:44;;;;;;;6.30;5.70;;;;;;;19.89;53.76;95410.59;4994619;28;20871;-89
2023/06/02 05:46:11;;;;;;;6.25;5.25;;;;;;;19.95;52.65;95407.81;4998969;28;20219;-89
2023/06/02 06:02:16;;;;;;;7.13;5.50;;;;;;;20.35;51.72;95415.44;4992938;28;20193;-88
2023/06/02 06:41:40;;;;;;;8.68;5.95;;;;;;;20.75;48.54;95429.31;4849764;29;20235;-89
2023/06/02 06:47:30;;;;;;;10.73;7.55;;;;;;;20.81;48.49;95433.56;4909483;29;20270;-90
2023/06/02 06:54:35;;;;;;;14.30;7.10;;;;;;;20.98;49.42;95449.97;4877984;29;20680;-89
2023/06/02 09:12:24;;;;;;;;;;;;;;;;;;;;;
2023/06/02 09:18:14;;;;;;;7.70;5.18;;;;;;;25.93;40.36;95439.19;5003501;28;20668;-85
2023/06/02 09:20:52;;;;;;;5.00;4.60;;;;;;;25.88;40.40;95437.38;5005971;28;20290;-87
2023/06/02 09:23:21;;;;;;;5.45;4.95;;;;;;;25.96;39.55;95438.66;5012723;28;20209;-87
2023/06/02 09:30:10;;;;;;;6.55;5.22;;;;;;;26.33;38.78;95448.63;4874267;29;21022;-87
2023/06/02 09:50:08;;;;;;;5.88;5.07;;;;;;;26.69;38.20;95436.63;5024304;28;20582;-90
2023/06/02 10:18:36;;;;;;;;;;;;;;;;;;;;;
2023/06/02 10:32:20;;;;;;;;;;;;;;;;;;;;;
2023/06/02 11:47:07;;;;;;;4.40;4.00;;;;;;;28.82;30.39;95385.72;3103853;26;20238;-90
2023/06/02 11:49:45;;;;;;;5.65;4.53;;;;;;;28.78;30.93;95383.94;4994629;28;20214;-91
2023/06/02 11:52:15;;;;;;;5.55;4.43;;;;;;;28.83;31.02;95382.00;4990472;28;20242;-90
2023/06/02 11:58:19;;;;;;;5.55;4.55;;;;;;;28.97;31.79;95383.84;5103566;23;20667;-90
2023/06/02 12:01:03;;;;;;;4.63;4.22;;;;;;;29.04;32.05;95385.00;5019102;28;20260;-90
2023/06/02 12:03:45;;;;;;;4.80;4.18;;;;;;;29.07;30.99;95376.44;5021683;28;20594;-91
2023/06/02 12:06:24;;;;;;;5.78;4.30;;;;;;;29.18;30.63;95385.75;5027954;28;20231;-90
2023/06/02 12:08:51;;;;;;;4.82;4.25;;;;;;;29.21;30.51;95374.56;5009889;28;20258;-89
2023/06/02 12:11:20;;;;;;;4.18;3.88;;;;;;;29.18;30.78;95379.66;5012528;28;20203;-90
2023/06/02 12:13:59;;;;;;;6.03;4.47;;;;;;;29.24;30.17;95373.16;5012405;28;20203;-90
2023/06/02 12:19:24;;;;;;;4.55;4.20;;;;;;;29.19;29.63;95371.41;5015200;28;20198;-89
2023/06/02 12:21:53;;;;;;;6.70;4.70;;;;;;;29.06;30.04;95372.22;5013410;28;20234;-89
2023/06/02 12:24:39;;;;;;;5.55;4.63;;;;;;;29.07;30.23;95371.13;5011254;28;20215;-90
2023/06/02 12:27:33;;;;;;;5.10;3.97;;;;;;;29.13;31.20;95369.94;5010583;28;20233;-89
2023/06/02 12:30:01;;;;;;;5.68;4.78;;;;;;;29.23;30.62;95376.13;5007729;28;20215;-85
2023/06/02 12:32:28;;;;;;;5.18;4.22;;;;;;;29.19;30.73;95374.06;5006484;28;20199;-86
2023/06/02 12:35:20;;;;;;;5.43;4.78;;;;;;;29.13;30.33;95372.59;5002743;28;20652;-91
2023/06/02 12:40:51;;;;;;;4.90;4.40;;;;;;;29.04;30.24;95370.97;5015291;28;20191;-90
2023/06/02 12:43:41;;;;;;;17.52;16.02;;;;;;;29.09;30.68;95370.84;5013653;28;20203;-91
2023/06/02 12:46:11;;;;;;;17.20;15.70;;;;;;;29.23;31.05;95368.94;5016298;28;20231;-90
2023/06/02 12:48:57;;;;;;;7.22;5.70;;;;;;;29.17;29.89;95368.28;5008684;28;20207;-91
2023/06/02 12:54:13;;;;;;;5.05;4.55;;;;;;;29.11;29.78;95366.81;5010554;28;20222;-91
2023/06/02 12:56:43;;;;;;;5.10;4.00;;;;;;;29.08;29.46;95371.91;5012381;28;20238;-90
2023/06/02 12:59:13;;;;;;;5.10;4.60;;;;;;;29.03;30.03;95358.78;5012146;28;20206;-91
2023/06/02 13:02:26;;;;;;;6.95;4.70;;;;;;;28.90;30.35;95364.88;5011208;28;20273;-90
2023/06/02 13:05:24;;;;;;;6.55;4.88;;;;;;;28.20;30.55;95363.34;5007722;28;20203;-91
2023/06/02 13:08:01;;;;;;;8.10;4.85;;;;;;;28.19;31.50;95367.03;5010963;28;20234;-91
2023/06/02 13:10:45;;;;;;;4.90;4.47;;;;;;;28.13;30.89;95357.59;5011680;28;20309;-87
2023/06/02 13:13:12;;;;;;;4.90;4.50;;;;;;;28.28;30.56;95353.94;5008821;28;20203;-86
2023/06/02 13:15:39;;;;;;;4.90;4.50;;;;;;;28.10;30.26;95352.88;5017558;28;20250;-91
2023/06/02 13:18:21;;;;;;;5.18;4.57;;;;;;;28.21;31.93;95356.97;5022070;28;20203;-90
2023/06/02 13:20:50;;;;;;;6.63;4.85;;;;;;;28.36;31.97;95351.38;5011631;28;20223;-91
2023/06/02 13:26:43;;;;;;;5.97;4.45;;;;;;;28.78;31.69;95352.91;5004151;28;20224;-91
2023/06/02 13:29:20;;;;;;;5.03;4.63;;;;;;;28.84;30.40;95354.41;5024474;28;20242;-91
2023/06/02 13:36:14;;;;;;;7.03;4.97;;;;;;;28.71;30.54;95341.13;4999815;28;20203;-91
2023/06/02 13:38:42;;;;;;;5.07;4.35;;;;;;;28.82;30.34;95343.31;4940675;29;20211;-91
2023/06/02 13:41:35;;;;;;;6.53;4.22;;;;;;;28.64;29.66;95340.78;4942556;29;20272;-91
2023/06/02 13:44:04;;;;;;;5.63;4.57;;;;;;;28.12;30.58;95348.09;4935813;29;20292;-92
2023/06/02 13:46:47;;;;;;;9.13;4.78;;;;;;;27.91;31.61;95339.72;4992270;28;20687;-92
2023/06/02 13:49:16;;;;;;;5.47;4.05;;;;;;;28.06;31.08;95342.13;5023595;28;20194;-91
2023/06/02 13:52:24;;;;;;;6.30;4.53;;;;;;;28.47;32.27;95342.16;5036859;28;20208;-92
2023/06/02 13:55:03;;;;;;;4.55;4.15;;;;;;;28.71;31.52;95341.13;5025450;28;20194;-91
2023/06/02 13:57:30;;;;;;;4.35;3.92;;;;;;;28.72;30.23;95337.41;5036308;28;20250;-91
2023/06/02 14:00:26;;;;;;;4.75;4.30;;;;;;;28.55;30.28;95340.66;5024884;28;20205;-91
2023/06/02 14:03:13;;;;;;;5.57;3.85;;;;;;;28.20;30.15;95342.16;4997220;28;20195;-91
2023/06/02 14:05:59;;;;;;;4.70;3.80;;;;;;;27.93;31.52;95339.44;5021954;28;20198;-89
2023/06/02 14:11:16;;;;;;;11.15;10.13;;;;;;;27.64;32.42;95347.63;5015373;28;20206;-92
2023/06/02 14:13:45;;;;;;;5.03;4.50;;;;;;;27.68;31.38;95340.66;5015944;28;20198;-91
2023/06/02 14:16:11;;;;;;;8.85;8.05;;;;;;;27.92;31.94;95336.00;5018777;28;20226;-91
2023/06/02 14:18:42;;;;;;;7.43;5.22;;;;;;;28.13;31.63;95344.34;5021627;28;20286;-91
2023/06/02 14:21:09;;;;;;;5.30;4.63;;;;;;;27.99;31.53;95343.56;5013044;28;20210;-86
2023/06/02 14:23:35;;;;;;;5.22;4.72;;;;;;;27.98;31.02;95337.50;5007674;28;20257;-88
2023/06/02 14:26:10;;;;;;;4.95;4.25;;;;;;;28.15;31.18;95339.56;5042960;23;20239;-91
2023/06/02 14:31:26;;;;;;;5.60;4.78;;;;;;;28.22;31.39;95342.66;5038839;28;20674;-89
2023/06/02 14:37:51;;;;;;;9.90;5.35;;;;;;;28.24;32.20;95345.78;4964368;28;20231;-90
2023/06/02 14:43:37;;;;;;;4.80;4.40;;;;;;;28.06;31.89;95336.81;5014430;28;20277;-88
2023/06/02 14:46:13;;;;;;;5.25;4.60;;;;;;;28.10;32.56;95332.50;4999251;28;20237;-89
2023/06/02 14:48:40;;;;;;;6.40;4.50;;;;;;;28.02;31.75;95333.19;5004593;28;20789;-86
2023/06/02 14:51:06;;;;;;;6.60;4.85;;;;;;;28.05;32.16;95340.53;5008894;28;20612;-87
2023/06/02 14:53:35;;;;;;;7.40;5.03;;;;;;;28.00;31.91;95334.53;5007713;28;20194;-85
2023/06/02 14:56:02;;;;;;;14.57;13.23;;;;;;;27.98;31.87;95328.75;5004526;28;20257;-86
2023/06/02 14:58:30;;;;;;;20.95;18.80;;;;;;;27.83;32.41;95337.75;5006997;28;20215;-86
2023/06/02 15:00:57;;;;;;;6.75;6.15;;;;;;;27.72;32.69;95331.06;5008353;28;20533;-86
2023/06/02 15:03:23;;;;;;;5.55;4.90;;;;;;;27.81;33.42;95322.16;5007683;28;20672;-87
2023/06/02 15:05:50;;;;;;;5.30;4.80;;;;;;;27.88;33.92;95334.25;5006997;28;20190;-87
2023/06/02 15:08:16;;;;;;;5.63;4.53;;;;;;;27.84;32.86;95332.19;5007813;28;20226;-88
2023/06/02 15:10:44;;;;;;;8.38;5.00;;;;;;;27.85;32.62;95328.47;4996853;28;20280;-88
2023/06/02 15:13:11;;;;;;;5.85;4.70;;;;;;;27.79;32.84;95332.25;5010228;28;20211;-87
2023/06/02 15:15:39;;;;;;;6.47;4.50;;;;;;;27.91;33.12;95329.13;5001720;28;20768;-87
2023/06/02 15:18:06;;;;;;;5.47;4.97;;;;;;;27.89;33.52;95333.97;4990460;28;20228;-87
2023/06/02 15:20:32;;;;;;;5.65;5.15;;;;;;;27.90;33.18;95335.53;5002440;28;20274;-87
2023/06/02 15:22:58;;;;;;;11.82;10.82;;;;;;;27.73;32.69;95325.47;5021498;28;20242;-87
2023/06/02 15:25:25;;;;;;;10.00;8.80;;;;;;;27.62;32.77;95328.59;5008599;28;20567;-87
2023/06/02 15:27:53;;;;;;;7.68;6.70;;;;;;;27.48;32.86;95326.66;4992548;28;20243;-87
2023/06/02 15:30:19;;;;;;;8.07;5.45;;;;;;;27.41;33.24;95325.47;4996877;28;20287;-88
2023/06/02 15:32:47;;;;;;;6.53;4.95;;;;;;;27.32;32.99;95321.91;5037929;28;20484;-87
2023/06/02 15:35:23;;;;;;;5.65;5.05;;;;;;;27.33;33.71;95321.59;5002856;28;20203;-87
2023/06/02 15:41:13;;;;;;;7.70;5.40;;;;;;;27.15;33.59;95317.13;4931948;29;20214;-86
2023/06/02 15:53:49;;;;;;;5.65;5.18;;;;;;;26.88;33.97;95319.63;4896648;29;20261;-85
2023/06/02 15:56:15;;;;;;;6.45;5.10;;;;;;;26.83;33.83;95320.47;4892345;28;20236;-83
2023/06/02 15:58:43;;;;;;;5.00;4.50;;;;;;;26.84;34.00;95319.41;5004167;28;20187;-82
2023/06/02 16:01:11;;;;;;;5.45;4.95;;;;;;;26.86;34.51;95327.84;5015426;28;20199;-84
2023/06/02 16:03:38;;;;;;;6.93;5.00;;;;;;;26.80;35.00;95318.41;5019565;28;20191;-83
2023/06/02 16:06:04;;;;;;;5.55;4.90;;;;;;;26.74;34.66;95319.56;5015630;28;20215;-84
2023/06/02 16:08:30;;;;;;;5.85;5.20;;;;;;;26.68;34.81;95318.03;5003342;28;20605;-83
2023/06/02 16:10:57;;;;;;;6.38;4.60;;;;;;;26.52;34.56;95321.94;5022033;28;20191;-86
2023/06/02 16:13:23;;;;;;;5.15;4.65;;;;;;;26.51;34.93;95317.72;5010338;28;20219;-86
2023/06/02 16:15:54;;;;;;;6.93;4.75;;;;;;;26.55;35.08;95321.38;5014589;28;20199;-85
2023/06/02 16:18:20;;;;;;;5.65;5.10;;;;;;;26.50;35.45;95322.22;5021392;28;20206;-87
2023/06/02 16:20:47;;;;;;;8.00;4.82;;;;;;;26.52;34.87;95322.75;5009072;28;20212;-85
2023/06/02 16:23:13;;;;;;;5.40;4.57;;;;;;;26.52;35.02;95321.94;5001230;28;20637;-85
2023/06/02 16:25:40;;;;;;;4.95;4.45;;;;;;;26.42;34.20;95326.28;5000844;28;20211;-85
2023/06/02 16:28:06;;;;;;;6.63;4.50;;;;;;;26.46;34.46;95323.84;5014037;28;20257;-85
2023/06/02 16:30:33;;;;;;;6.25;4.80;;;;;;;26.44;34.59;95318.84;5020598;28;20362;-86
2023/06/02 16:33:01;;;;;;;6.40;4.80;;;;;;;26.32;34.39;95325.63;5020990;28;20233;-85
2023/06/02 16:35:27;;;;;;;5.05;4.55;;;;;;;26.24;34.43;95326.97;5019364;28;20203;-86
2023/06/02 16:37:54;;;;;;;5.72;4.65;;;;;;;26.07;34.75;95324.00;5018499;28;20218;-86
2023/06/02 16:40:20;;;;;;;5.55;4.63;;;;;;;25.88;34.06;95326.56;5001250;28;20223;-85
2023/06/02 16:42:46;;;;;;;4.97;4.47;;;;;;;25.91;34.84;95331.28;5006391;28;20190;-85
2023/06/02 16:45:13;;;;;;;4.70;4.30;;;;;;;25.79;34.77;95336.16;5012433;28;20215;-84
2023/06/02 16:47:39;;;;;;;6.28;4.60;;;;;;;25.76;34.64;95328.81;5011752;28;20238;-84
2023/06/02 16:50:08;;;;;;;6.25;4.60;;;;;;;25.60;34.77;95335.22;5008761;28;20257;-85
2023/06/02 16:52:36;;;;;;;5.78;4.72;;;;;;;25.57;35.63;95328.69;5002637;28;20199;-85
2023/06/02 16:55:10;;;;;;;4.93;4.50;;;;;;;25.65;34.92;95333.38;4995356;28;20188;-85
2023/06/02 16:57:37;;;;;;;5.60;4.72;;;;;;;25.66;34.90;95334.16;5001596;28;20728;-86
2023/06/02 17:00:04;;;;;;;4.85;4.45;;;;;;;25.64;34.72;95329.16;4994530;28;20195;-85
2023/06/02 17:02:30;;;;;;;6.05;4.57;;;;;;;25.66;34.81;95334.16;4998651;28;20195;-85
2023/06/02 17:04:57;;;;;;;6.32;4.82;;;;;;;25.56;33.94;95334.22;4995341;28;20207;-85
2023/06/02 17:07:25;;;;;;;5.88;4.35;;;;;;;25.39;33.44;95330.16;4994436;28;20215;-86
2023/06/02 17:09:51;;;;;;;5.07;4.57;;;;;;;25.41;33.77;95332.50;4995723;28;20204;-84
2023/06/02 17:12:18;;;;;;;4.72;4.32;;;;;;;25.39;33.83;95332.78;4995752;28;20290;-85
2023/06/02 17:14:45;;;;;;;5.72;4.60;;;;;;;25.38;33.30;95330.44;4995240;28;20775;-84
2023/06/02 17:17:12;;;;;;;4.90;4.47;;;;;;;25.37;33.27;95332.28;5001449;28;20231;-85
2023/06/02 17:19:38;;;;;;;5.40;4.65;;;;;;;25.39;34.01;95332.00;5000330;28;20202;-85
2023/06/02 17:22:07;;;;;;;4.70;4.30;;;;;;;25.32;33.79;95334.16;4994771;28;20195;-85
2023/06/02 17:24:34;;;;;;;9.18;4.47;;;;;;;25.28;33.52;95335.75;4994097;28;20700;-86
2023/06/02 17:27:01;;;;;;;4.60;4.03;;;;;;;25.27;33.91;95340.25;4993722;28;20227;-85
2023/06/02 17:29:28;;;;;;;5.93;4.50;;;;;;;25.19;33.84;95338.22;4999376;28;20219;-85
2023/06/02 17:31:54;;;;;;;6.18;4.25;;;;;;;25.23;33.79;95339.22;5014668;28;20195;-85
2023/06/02 17:34:22;;;;;;;6.28;4.20;;;;;;;25.19;33.45;95340.06;5014018;28;20708;-85
2023/06/02 17:36:48;;;;;;;4.88;4.40;;;;;;;25.05;32.96;95345.13;5002107;28;20218;-85
2023/06/02 17:39:15;;;;;;;6.22;4.10;;;;;;;25.07;33.41;95346.44;5005885;28;20194;-85
2023/06/02 17:41:43;;;;;;;6.47;4.30;;;;;;;25.02;33.27;95351.72;4995546;28;20642;-84
2023/06/02 17:44:09;;;;;;;4.78;3.97;;;;;;;25.00;33.22;95350.44;5005586;28;20211;-86
2023/06/02 17:46:36;;;;;;;5.68;4.30;;;;;;;24.95;32.20;95356.53;5013428;28;20300;-85
2023/06/02 17:49:02;;;;;;;4.40;4.00;;;;;;;24.88;32.13;95345.47;5018288;28;20222;-85
2023/06/02 17:51:29;;;;;;;4.85;3.92;;;;;;;24.82;32.22;95362.38;5020653;28;20222;-86
2023/06/02 17:53:55;;;;;;;7.15;4.20;;;;;;;24.81;32.19;95360.00;5002735;28;20211;-85
2023/06/02 17:56:22;;;;;;;5.65;4.00;;;;;;;24.74;31.68;95363.72;5015146;28;20221;-85
2023/06/02 17:58:50;;;;;;;4.55;4.15;;;;;;;24.75;32.03;95370.56;5013621;28;20223;-85
2023/06/02 18:01:16;;;;;;;4.50;4.10;;;;;;;24.75;32.03;95372.41;5001801;28;20195;-86
2023/06/02 18:03:43;;;;;;;4.18;3.78;;;;;;;24.66;31.51;95374.81;5015983;28;20257;-85
2023/06/02 18:06:09;;;;;;;9.00;4.47;;;;;;;24.62;31.68;95379.06;5021238;28;20503;-86
2023/06/02 18:08:36;;;;;;;4.38;3.97;;;;;;;24.63;31.89;95377.22;5021083;28;20293;-86
2023/06/02 18:11:03;;;;;;;5.28;4.43;;;;;;;24.51;31.68;95381.97;5020171;28;20240;-85
2023/06/02 18:13:30;;;;;;;5.20;4.32;;;;;;;24.49;31.80;95382.25;5017064;28;20199;-85
2023/06/02 18:15:58;;;;;;;5.03;4.03;;;;;;;24.52;32.15;95379.06;5001164;28;20219;-87